sensor_id;sensor_type;location;lat;lon;timestamp;pressure;altitude;pressure_sealevel;temperature;humidity
75617;BME280;64200;55.426;37.758;2024-01-30T00:02:32;100473.88;;;0.21;71.53
75617;BME280;64200;55.426;37.758;2024-01-30T00:07:32;100460.22;;;0.28;72.05
75617;BME280;64200;55.426;37.758;2024-01-30T00:12:33;100423.69;;;0.20;72.34
75617;BME280;64200;55.426;37.758;2024-01-30T00:17:33;100435.53;;;0.28;71.98
75617;BME280;64200;55.426;37.758;2024-01-30T00:22:34;100428.22;;;0.43;71.41
75617;BME280;64200;55.426;37.758;2024-01-30T00:27:34;100426.91;;;0.26;71.07
75617;BME280;64200;55.426;37.758;2024-01-30T00:32:35;100420.56;;;0.18;71.91
75617;BME280;64200;55.426;37.758;2024-01-30T00:37:36;100420.69;;;0.32;72.08
75617;BME280;64200;55.426;37.758;2024-01-30T00:42:36;100412.03;;;0.27;71.67
75617;BME280;64200;55.426;37.758;2024-01-30T00:47:37;100408.75;;;0.55;70.72
75617;BME280;64200;55.426;37.758;2024-01-30T00:52:37;100421.75;;;0.62;70.42
75617;BME280;64200;55.426;37.758;2024-01-30T00:57:39;100420.22;;;0.68;70.78
75617;BME280;64200;55.426;37.758;2024-01-30T01:02:40;100421.03;;;0.68;70.70
75617;BME280;64200;55.426;37.758;2024-01-30T01:07:40;100420.19;;;0.61;70.08
75617;BME280;64200;55.426;37.758;2024-01-30T01:12:43;100416.09;;;0.44;71.16
75617;BME280;64200;55.426;37.758;2024-01-30T01:17:44;100404.72;;;0.45;70.78
75617;BME280;64200;55.426;37.758;2024-01-30T01:22:44;100411.91;;;0.57;70.63
75617;BME280;64200;55.426;37.758;2024-01-30T01:27:45;100422.19;;;0.71;70.99
75617;BME280;64200;55.426;37.758;2024-01-30T01:32:51;100408.84;;;0.66;70.50
75617;BME280;64200;55.426;37.758;2024-01-30T01:38:02;100403.72;;;0.61;71.12
75617;BME280;64200;55.426;37.758;2024-01-30T01:43:03;100414.31;;;0.62;71.25
75617;BME280;64200;55.426;37.758;2024-01-30T01:48:06;100391.59;;;0.69;71.03
75617;BME280;64200;55.426;37.758;2024-01-30T01:53:07;100408.97;;;0.84;70.01
75617;BME280;64200;55.426;37.758;2024-01-30T01:58:09;100402.94;;;0.64;70.16
75617;BME280;64200;55.426;37.758;2024-01-30T02:03:10;100394.28;;;0.62;71.49
75617;BME280;64200;55.426;37.758;2024-01-30T02:08:11;100394.75;;;0.71;70.45
75617;BME280;64200;55.426;37.758;2024-01-30T02:13:12;100383.41;;;0.73;71.16
75617;BME280;64200;55.426;37.758;2024-01-30T02:18:13;100398.38;;;0.82;70.44
75617;BME280;64200;55.426;37.758;2024-01-30T02:23:15;100379.91;;;0.79;71.27
75617;BME280;64200;55.426;37.758;2024-01-30T02:28:16;100361.47;;;0.80;70.58
75617;BME280;64200;55.426;37.758;2024-01-30T02:33:16;100346.41;;;0.59;71.06
75617;BME280;64200;55.426;37.758;2024-01-30T02:38:17;100386.94;;;0.77;70.72
75617;BME280;64200;55.426;37.758;2024-01-30T02:43:18;100394.13;;;0.92;70.09
75617;BME280;64200;55.426;37.758;2024-01-30T02:48:18;100378.50;;;1.03;70.26
75617;BME280;64200;55.426;37.758;2024-01-30T02:53:19;100399.03;;;1.20;69.68
75617;BME280;64200;55.426;37.758;2024-01-30T02:58:19;100373.69;;;0.86;70.09
75617;BME280;64200;55.426;37.758;2024-01-30T03:03:20;100377.53;;;0.74;71.02
75617;BME280;64200;55.426;37.758;2024-01-30T03:08:20;100375.75;;;1.00;70.12
75617;BME280;64200;55.426;37.758;2024-01-30T03:13:21;100379.41;;;1.22;69.45
75617;BME280;64200;55.426;37.758;2024-01-30T03:18:23;100389.47;;;1.00;70.65
75617;BME280;64200;55.426;37.758;2024-01-30T03:23:24;100369.16;;;1.12;70.35
75617;BME280;64200;55.426;37.758;2024-01-30T03:28:24;100388.38;;;1.12;70.85
75617;BME280;64200;55.426;37.758;2024-01-30T03:33:26;100397.88;;;1.21;70.20
75617;BME280;64200;55.426;37.758;2024-01-30T03:38:28;100401.00;;;1.23;70.01
75617;BME280;64200;55.426;37.758;2024-01-30T03:43:29;100385.78;;;1.40;70.31
75617;BME280;64200;55.426;37.758;2024-01-30T03:48:30;100395.22;;;1.43;69.62
75617;BME280;64200;55.426;37.758;2024-01-30T03:53:30;100404.25;;;1.44;70.42
75617;BME280;64200;55.426;37.758;2024-01-30T03:58:31;100392.50;;;1.50;69.94
75617;BME280;64200;55.426;37.758;2024-01-30T04:03:31;100394.53;;;1.64;69.48
75617;BME280;64200;55.426;37.758;2024-01-30T04:08:32;100397.63;;;1.52;69.75
75617;BME280;64200;55.426;37.758;2024-01-30T04:13:33;100394.94;;;1.70;69.74
75617;BME280;64200;55.426;37.758;2024-01-30T04:18:34;100400.94;;;1.90;69.05
75617;BME280;64200;55.426;37.758;2024-01-30T04:23:35;100390.22;;;1.67;69.58
75617;BME280;64200;55.426;37.758;2024-01-30T04:28:35;100404.84;;;1.85;68.92
75617;BME280;64200;55.426;37.758;2024-01-30T04:33:36;100406.06;;;2.02;68.48
75617;BME280;64200;55.426;37.758;2024-01-30T04:38:40;100420.59;;;1.99;68.39
75617;BME280;64200;55.426;37.758;2024-01-30T04:43:41;100400.53;;;1.91;68.50
75617;BME280;64200;55.426;37.758;2024-01-30T04:48:41;100395.47;;;2.08;68.77
75617;BME280;64200;55.426;37.758;2024-01-30T04:53:42;100394.69;;;2.11;68.24
75617;BME280;64200;55.426;37.758;2024-01-30T04:58:42;100401.03;;;2.33;68.52
75617;BME280;64200;55.426;37.758;2024-01-30T05:03:43;100407.31;;;2.34;68.18
75617;BME280;64200;55.426;37.758;2024-01-30T05:08:44;100406.94;;;2.42;68.10
75617;BME280;64200;55.426;37.758;2024-01-30T05:13:44;100407.31;;;2.37;67.90
75617;BME280;64200;55.426;37.758;2024-01-30T05:18:45;100410.47;;;2.39;67.53
75617;BME280;64200;55.426;37.758;2024-01-30T05:23:45;100402.19;;;2.32;68.33
75617;BME280;64200;55.426;37.758;2024-01-30T05:28:46;100413.22;;;2.46;67.98
75617;BME280;64200;55.426;37.758;2024-01-30T05:33:46;100407.72;;;2.36;67.79
75617;BME280;64200;55.426;37.758;2024-01-30T05:38:47;100413.25;;;2.61;68.06
75617;BME280;64200;55.426;37.758;2024-01-30T05:43:48;100422.69;;;2.49;67.45
75617;BME280;64200;55.426;37.758;2024-01-30T05:48:48;100417.19;;;2.60;67.44
75617;BME280;64200;55.426;37.758;2024-01-30T05:53:49;100417.56;;;2.58;67.57
75617;BME280;64200;55.426;37.758;2024-01-30T05:58:49;100422.69;;;2.56;67.76
75617;BME280;64200;55.426;37.758;2024-01-30T06:03:53;100418.78;;;2.68;67.61
75617;BME280;64200;55.426;37.758;2024-01-30T06:08:53;100423.06;;;2.40;67.98
75617;BME280;64200;55.426;37.758;2024-01-30T06:13:56;100424.25;;;2.54;67.78
75617;BME280;64200;55.426;37.758;2024-01-30T06:18:56;100438.81;;;2.61;68.17
75617;BME280;64200;55.426;37.758;2024-01-30T06:23:57;100438.03;;;2.79;67.80
75617;BME280;64200;55.426;37.758;2024-01-30T06:28:58;100440.81;;;3.01;67.42
75617;BME280;64200;55.426;37.758;2024-01-30T06:33:58;100440.81;;;2.86;67.56
75617;BME280;64200;55.426;37.758;2024-01-30T06:38:59;100438.81;;;2.87;67.58
75617;BME280;64200;55.426;37.758;2024-01-30T06:44:01;100442.75;;;2.93;67.20
75617;BME280;64200;55.426;37.758;2024-01-30T06:49:02;100454.56;;;3.04;67.07
75617;BME280;64200;55.426;37.758;2024-01-30T06:54:02;100453.00;;;3.07;66.46
75617;BME280;64200;55.426;37.758;2024-01-30T06:59:03;100469.50;;;3.21;66.08
75617;BME280;64200;55.426;37.758;2024-01-30T07:04:04;100447.47;;;3.25;66.52
75617;BME280;64200;55.426;37.758;2024-01-30T07:09:04;100474.59;;;3.59;65.52
75617;BME280;64200;55.426;37.758;2024-01-30T07:14:05;100457.28;;;3.40;65.70
75617;BME280;64200;55.426;37.758;2024-01-30T07:19:06;100470.69;;;3.31;66.39
75617;BME280;64200;55.426;37.758;2024-01-30T07:24:06;100475.03;;;3.36;66.25
75617;BME280;64200;55.426;37.758;2024-01-30T07:29:07;100473.78;;;3.65;66.03
75617;BME280;64200;55.426;37.758;2024-01-30T07:34:08;100483.25;;;3.64;65.95
75617;BME280;64200;55.426;37.758;2024-01-30T07:39:09;100476.19;;;3.45;65.74
75617;BME280;64200;55.426;37.758;2024-01-30T07:44:10;100462.03;;;3.40;65.61
75617;BME280;64200;55.426;37.758;2024-01-30T07:49:11;100462.41;;;3.38;66.33
75617;BME280;64200;55.426;37.758;2024-01-30T07:54:15;100466.69;;;3.72;65.69
75617;BME280;64200;55.426;37.758;2024-01-30T07:59:15;100470.59;;;3.74;65.49
75617;BME280;64200;55.426;37.758;2024-01-30T08:04:16;100478.53;;;3.65;64.89
75617;BME280;64200;55.426;37.758;2024-01-30T08:09:17;100483.59;;;3.81;65.63
75617;BME280;64200;55.426;37.758;2024-01-30T08:14:18;100475.69;;;3.90;64.93
75617;BME280;64200;55.426;37.758;2024-01-30T08:19:18;100476.94;;;3.75;65.21
75617;BME280;64200;55.426;37.758;2024-01-30T08:24:19;100476.88;;;3.85;65.38
75617;BME280;64200;55.426;37.758;2024-01-30T08:29:20;100464.22;;;3.99;65.18
75617;BME280;64200;55.426;37.758;2024-01-30T08:34:21;100465.41;;;3.94;64.62
75617;BME280;64200;55.426;37.758;2024-01-30T08:39:21;100463.09;;;3.85;64.78
75617;BME280;64200;55.426;37.758;2024-01-30T08:44:22;100469.75;;;3.95;65.25
75617;BME280;64200;55.426;37.758;2024-01-30T08:49:22;100475.59;;;4.12;64.86
75617;BME280;64200;55.426;37.758;2024-01-30T08:54:23;100457.75;;;4.27;64.45
75617;BME280;64200;55.426;37.758;2024-01-30T08:59:24;100457.50;;;4.00;64.23
75617;BME280;64200;55.426;37.758;2024-01-30T09:04:25;100442.19;;;3.88;64.63
75617;BME280;64200;55.426;37.758;2024-01-30T09:09:25;100455.03;;;4.20;64.63
75617;BME280;64200;55.426;37.758;2024-01-30T09:14:26;100459.09;;;3.94;64.76
75617;BME280;64200;55.426;37.758;2024-01-30T09:19:26;100465.38;;;4.09;64.68
75617;BME280;64200;55.426;37.758;2024-01-30T09:24:27;100452.34;;;4.09;64.42
75617;BME280;64200;55.426;37.758;2024-01-30T09:29:28;100457.31;;;4.36;64.42
75617;BME280;64200;55.426;37.758;2024-01-30T09:34:28;100452.63;;;4.33;63.96
75617;BME280;64200;55.426;37.758;2024-01-30T09:39:29;100455.47;;;4.15;64.41
75617;BME280;64200;55.426;37.758;2024-01-30T09:44:30;100454.66;;;4.18;64.13
75617;BME280;64200;55.426;37.758;2024-01-30T09:49:32;100466.41;;;4.33;64.15
75617;BME280;64200;55.426;37.758;2024-01-30T09:54:34;100463.91;;;4.53;64.31
75617;BME280;64200;55.426;37.758;2024-01-30T09:59:35;100450.47;;;4.58;63.53
75617;BME280;64200;55.426;37.758;2024-01-30T10:04:35;100462.31;;;4.59;62.70
75617;BME280;64200;55.426;37.758;2024-01-30T10:09:36;100444.13;;;4.65;62.88
75617;BME280;64200;55.426;37.758;2024-01-30T10:14:41;100454.41;;;4.61;63.03
75617;BME280;64200;55.426;37.758;2024-01-30T10:19:42;100455.81;;;4.87;63.23
75617;BME280;64200;55.426;37.758;2024-01-30T10:24:42;100461.69;;;4.89;62.86
75617;BME280;64200;55.426;37.758;2024-01-30T10:29:48;100462.75;;;4.54;62.51
75617;BME280;64200;55.426;37.758;2024-01-30T10:34:49;100462.25;;;4.70;63.11
75617;BME280;64200;55.426;37.758;2024-01-30T10:39:49;100456.34;;;4.68;63.09
75617;BME280;64200;55.426;37.758;2024-01-30T10:49:59;100465.94;;;5.05;63.08
75617;BME280;64200;55.426;37.758;2024-01-30T10:55:00;100457.88;;;5.21;62.41
75617;BME280;64200;55.426;37.758;2024-01-30T11:00:03;100448.06;;;5.17;61.81
75617;BME280;64200;55.426;37.758;2024-01-30T11:05:10;100447.00;;;5.00;62.92
75617;BME280;64200;55.426;37.758;2024-01-30T11:10:12;100460.31;;;5.12;62.22
75617;BME280;64200;55.426;37.758;2024-01-30T11:15:16;100463.13;;;5.08;62.48
75617;BME280;64200;55.426;37.758;2024-01-30T11:20:21;100459.19;;;5.09;61.67
75617;BME280;64200;55.426;37.758;2024-01-30T11:25:22;100469.03;;;5.10;62.00
75617;BME280;64200;55.426;37.758;2024-01-30T11:30:32;100474.16;;;5.12;61.92
75617;BME280;64200;55.426;37.758;2024-01-30T11:35:34;100472.56;;;5.15;61.63
75617;BME280;64200;55.426;37.758;2024-01-30T11:40:37;100468.00;;;4.93;62.20
75617;BME280;64200;55.426;37.758;2024-01-30T11:45:38;100466.81;;;4.95;62.19
75617;BME280;64200;55.426;37.758;2024-01-30T11:50:40;100463.66;;;4.92;62.28
75617;BME280;64200;55.426;37.758;2024-01-30T11:55:41;100451.78;;;4.96;62.32
75617;BME280;64200;55.426;37.758;2024-01-30T12:00:41;100468.34;;;4.99;62.23
75617;BME280;64200;55.426;37.758;2024-01-30T12:05:43;100473.41;;;5.08;61.95
75617;BME280;64200;55.426;37.758;2024-01-30T12:10:43;100464.09;;;4.84;62.31
75617;BME280;64200;55.426;37.758;2024-01-30T12:15:44;100463.63;;;4.96;62.24
75617;BME280;64200;55.426;37.758;2024-01-30T12:20:44;100470.38;;;4.91;62.24
75617;BME280;64200;55.426;37.758;2024-01-30T12:25:45;100494.47;;;4.91;62.71
75617;BME280;64200;55.426;37.758;2024-01-30T12:30:45;100494.81;;;4.97;62.34
75617;BME280;64200;55.426;37.758;2024-01-30T12:35:47;100491.75;;;4.84;62.41
75617;BME280;64200;55.426;37.758;2024-01-30T12:40:56;100481.59;;;4.66;62.82
75617;BME280;64200;55.426;37.758;2024-01-30T12:45:58;100489.75;;;4.91;62.74
75617;BME280;64200;55.426;37.758;2024-01-30T12:50:59;100497.69;;;4.86;62.59
75617;BME280;64200;55.426;37.758;2024-01-30T12:56:00;100508.25;;;4.98;62.41
75617;BME280;64200;55.426;37.758;2024-01-30T13:01:01;100506.25;;;5.02;62.37
75617;BME280;64200;55.426;37.758;2024-01-30T13:06:02;100517.66;;;5.04;62.60
75617;BME280;64200;55.426;37.758;2024-01-30T13:11:03;100517.25;;;5.06;62.02
75617;BME280;64200;55.426;37.758;2024-01-30T13:16:04;100515.31;;;5.06;62.39
75617;BME280;64200;55.426;37.758;2024-01-30T13:21:04;100511.78;;;5.02;62.80
75617;BME280;64200;55.426;37.758;2024-01-30T13:26:05;100528.44;;;4.91;62.42
75617;BME280;64200;55.426;37.758;2024-01-30T13:31:06;100521.41;;;4.76;62.76
75617;BME280;64200;55.426;37.758;2024-01-30T13:36:08;100528.53;;;4.73;63.31
75617;BME280;64200;55.426;37.758;2024-01-30T13:41:10;100517.88;;;4.72;63.33
75617;BME280;64200;55.426;37.758;2024-01-30T13:46:10;100526.13;;;4.79;62.81
75617;BME280;64200;55.426;37.758;2024-01-30T13:51:13;100513.56;;;4.71;62.86
75617;BME280;64200;55.426;37.758;2024-01-30T13:56:13;100528.91;;;4.83;62.82
75617;BME280;64200;55.426;37.758;2024-01-30T14:01:14;100527.31;;;4.82;62.67
75617;BME280;64200;55.426;37.758;2024-01-30T14:06:15;100532.06;;;4.81;63.10
75617;BME280;64200;55.426;37.758;2024-01-30T14:11:15;100525.38;;;4.75;63.29
75617;BME280;64200;55.426;37.758;2024-01-30T14:16:16;100535.56;;;4.85;63.05
75617;BME280;64200;55.426;37.758;2024-01-30T14:21:16;100534.47;;;4.75;63.10
75617;BME280;64200;55.426;37.758;2024-01-30T14:26:17;100545.06;;;4.84;63.41
75617;BME280;64200;55.426;37.758;2024-01-30T14:31:18;100547.47;;;4.79;63.39
75617;BME280;64200;55.426;37.758;2024-01-30T14:36:20;100550.63;;;4.81;63.44
75617;BME280;64200;55.426;37.758;2024-01-30T14:41:21;100556.97;;;4.70;63.31
75617;BME280;64200;55.426;37.758;2024-01-30T14:46:21;100551.06;;;4.75;63.07
75617;BME280;64200;55.426;37.758;2024-01-30T14:51:22;100560.16;;;4.72;63.41
75617;BME280;64200;55.426;37.758;2024-01-30T14:56:23;100554.59;;;4.76;63.44
75617;BME280;64200;55.426;37.758;2024-01-30T15:01:23;100557.72;;;4.82;63.32
75617;BME280;64200;55.426;37.758;2024-01-30T15:06:24;100555.34;;;4.80;63.15
75617;BME280;64200;55.426;37.758;2024-01-30T15:11:25;100575.50;;;4.81;63.24
75617;BME280;64200;55.426;37.758;2024-01-30T15:16:25;100560.59;;;4.64;62.97
75617;BME280;64200;55.426;37.758;2024-01-30T15:21:26;100572.75;;;4.73;63.51
75617;BME280;64200;55.426;37.758;2024-01-30T15:26:26;100583.06;;;4.66;63.68
75617;BME280;64200;55.426;37.758;2024-01-30T15:31:27;100576.72;;;4.72;63.31
75617;BME280;64200;55.426;37.758;2024-01-30T15:36:31;100587.75;;;4.76;63.45
75617;BME280;64200;55.426;37.758;2024-01-30T15:41:31;100594.44;;;4.86;63.65
75617;BME280;64200;55.426;37.758;2024-01-30T15:46:32;100582.22;;;4.76;63.35
75617;BME280;64200;55.426;37.758;2024-01-30T15:51:33;100590.16;;;4.74;63.53
75617;BME280;64200;55.426;37.758;2024-01-30T15:56:34;100564.56;;;4.55;63.44
75617;BME280;64200;55.426;37.758;2024-01-30T16:01:35;100587.09;;;4.50;63.11
75617;BME280;64200;55.426;37.758;2024-01-30T16:06:35;100594.50;;;4.71;63.98
75617;BME280;64200;55.426;37.758;2024-01-30T16:11:36;100596.13;;;4.62;63.91
75617;BME280;64200;55.426;37.758;2024-01-30T16:16:37;100601.19;;;4.78;63.52
75617;BME280;64200;55.426;37.758;2024-01-30T16:21:39;100605.19;;;4.66;63.43
75617;BME280;64200;55.426;37.758;2024-01-30T16:26:39;100611.06;;;4.75;64.10
75617;BME280;64200;55.426;37.758;2024-01-30T16:31:40;100614.63;;;4.75;63.61
75617;BME280;64200;55.426;37.758;2024-01-30T16:36:41;100605.13;;;4.80;63.78
75617;BME280;64200;55.426;37.758;2024-01-30T16:41:43;100613.41;;;4.80;63.88
75617;BME280;64200;55.426;37.758;2024-01-30T16:46:44;100602.00;;;4.67;64.05
75617;BME280;64200;55.426;37.758;2024-01-30T16:51:44;100600.81;;;4.75;63.76
75617;BME280;64200;55.426;37.758;2024-01-30T16:56:45;100600.78;;;4.83;63.82
75617;BME280;64200;55.426;37.758;2024-01-30T17:01:48;100603.19;;;4.70;63.84
75617;BME280;64200;55.426;37.758;2024-01-30T17:06:48;100613.03;;;4.74;63.85
75617;BME280;64200;55.426;37.758;2024-01-30T17:11:49;100608.69;;;4.73;63.88
75617;BME280;64200;55.426;37.758;2024-01-30T17:16:49;100599.63;;;4.73;63.78
75617;BME280;64200;55.426;37.758;2024-01-30T17:21:52;100589.78;;;4.68;63.92
75617;BME280;64200;55.426;37.758;2024-01-30T17:26:52;100611.81;;;4.79;63.85
75617;BME280;64200;55.426;37.758;2024-01-30T17:31:53;100600.50;;;4.52;63.83
75617;BME280;64200;55.426;37.758;2024-01-30T17:36:53;100616.22;;;4.66;64.05
75617;BME280;64200;55.426;37.758;2024-01-30T17:41:54;100617.38;;;4.72;63.78
75617;BME280;64200;55.426;37.758;2024-01-30T17:46:54;100611.09;;;4.71;64.10
75617;BME280;64200;55.426;37.758;2024-01-30T17:51:55;100616.22;;;4.69;64.07
75617;BME280;64200;55.426;37.758;2024-01-30T17:56:56;100610.69;;;4.73;63.81
75617;BME280;64200;55.426;37.758;2024-01-30T18:01:56;100597.31;;;4.61;63.90
75617;BME280;64200;55.426;37.758;2024-01-30T18:06:57;100600.47;;;4.63;63.63
75617;BME280;64200;55.426;37.758;2024-01-30T18:11:58;100600.84;;;4.65;63.92
75617;BME280;64200;55.426;37.758;2024-01-30T18:16:58;100605.22;;;4.58;64.22
75617;BME280;64200;55.426;37.758;2024-01-30T18:21:59;100604.00;;;4.67;63.95
75617;BME280;64200;55.426;37.758;2024-01-30T18:26:59;100601.63;;;4.62;64.04
75617;BME280;64200;55.426;37.758;2024-01-30T18:32:00;100602.47;;;4.51;63.95
75617;BME280;64200;55.426;37.758;2024-01-30T18:37:01;100602.13;;;4.46;64.18
75617;BME280;64200;55.426;37.758;2024-01-30T18:42:01;100600.94;;;4.43;64.29
75617;BME280;64200;55.426;37.758;2024-01-30T18:47:02;100610.75;;;4.51;64.18
75617;BME280;64200;55.426;37.758;2024-01-30T18:52:03;100609.22;;;4.43;64.16
75617;BME280;64200;55.426;37.758;2024-01-30T18:57:05;100607.66;;;4.38;64.16
75617;BME280;64200;55.426;37.758;2024-01-30T19:02:05;100608.88;;;4.34;64.56
75617;BME280;64200;55.426;37.758;2024-01-30T19:07:09;100604.97;;;4.20;64.34
75617;BME280;64200;55.426;37.758;2024-01-30T19:12:19;100602.56;;;4.30;64.73
75617;BME280;64200;55.426;37.758;2024-01-30T19:17:19;100604.53;;;4.33;64.58
75617;BME280;64200;55.426;37.758;2024-01-30T19:22:23;100592.69;;;4.32;64.45
75617;BME280;64200;55.426;37.758;2024-01-30T19:27:29;100601.38;;;4.27;64.28
75617;BME280;64200;55.426;37.758;2024-01-30T19:32:37;100586.06;;;4.01;64.72
75617;BME280;64200;55.426;37.758;2024-01-30T19:37:37;100588.81;;;4.01;64.94
75617;BME280;64200;55.426;37.758;2024-01-30T19:42:41;100592.75;;;4.07;65.02
75617;BME280;64200;55.426;37.758;2024-01-30T19:47:41;100602.63;;;4.12;65.05
75617;BME280;64200;55.426;37.758;2024-01-30T19:52:42;100596.75;;;3.95;64.93
75617;BME280;64200;55.426;37.758;2024-01-30T19:57:47;100608.16;;;4.04;64.96
75617;BME280;64200;55.426;37.758;2024-01-30T20:02:48;100598.28;;;3.96;64.99
75617;BME280;64200;55.426;37.758;2024-01-30T20:07:48;100611.28;;;4.14;64.91
75617;BME280;64200;55.426;37.758;2024-01-30T20:12:49;100589.22;;;4.03;64.49
75617;BME280;64200;55.426;37.758;2024-01-30T20:17:53;100590.44;;;3.84;64.79
75617;BME280;64200;55.426;37.758;2024-01-30T20:22:54;100588.06;;;3.90;64.95
75617;BME280;64200;55.426;37.758;2024-01-30T20:27:54;100581.41;;;3.62;65.17
75617;BME280;64200;55.426;37.758;2024-01-30T20:32:55;100579.03;;;3.57;65.45
75617;BME280;64200;55.426;37.758;2024-01-30T20:37:58;100575.47;;;3.49;65.52
75617;BME280;64200;55.426;37.758;2024-01-30T20:43:00;100600.28;;;3.74;65.56
75617;BME280;64200;55.426;37.758;2024-01-30T20:48:00;100601.47;;;3.84;65.77
75617;BME280;64200;55.426;37.758;2024-01-30T20:53:04;100567.19;;;3.74;65.23
75617;BME280;64200;55.426;37.758;2024-01-30T20:58:05;100589.63;;;3.91;65.15
75617;BME280;64200;55.426;37.758;2024-01-30T21:03:06;100568.34;;;3.87;65.23
75617;BME280;64200;55.426;37.758;2024-01-30T21:08:12;100569.16;;;3.88;65.33
75617;BME280;64200;55.426;37.758;2024-01-30T21:13:12;100590.84;;;3.82;65.07
75617;BME280;64200;55.426;37.758;2024-01-30T21:18:13;100573.47;;;3.89;65.13
75617;BME280;64200;55.426;37.758;2024-01-30T21:23:17;100588.41;;;4.10;64.58
75617;BME280;64200;55.426;37.758;2024-01-30T21:28:18;100591.16;;;4.10;65.01
75617;BME280;64200;55.426;37.758;2024-01-30T21:33:23;100583.69;;;4.03;64.49
75617;BME280;64200;55.426;37.758;2024-01-30T21:38:27;100579.78;;;3.93;64.71
75617;BME280;64200;55.426;37.758;2024-01-30T21:43:28;100584.09;;;4.01;64.62
75617;BME280;64200;55.426;37.758;2024-01-30T21:48:28;100588.44;;;4.06;64.72
75617;BME280;64200;55.426;37.758;2024-01-30T21:53:29;100575.03;;;3.97;64.14
75617;BME280;64200;55.426;37.758;2024-01-30T21:58:30;100574.63;;;4.06;64.18
75617;BME280;64200;55.426;37.758;2024-01-30T22:03:31;100572.94;;;4.37;63.47
75617;BME280;64200;55.426;37.758;2024-01-30T22:08:31;100572.94;;;4.37;62.95
75617;BME280;64200;55.426;37.758;2024-01-30T22:13:32;100565.03;;;4.39;63.40
75617;BME280;64200;55.426;37.758;2024-01-30T22:18:33;100556.00;;;4.35;62.90
75617;BME280;64200;55.426;37.758;2024-01-30T22:23:34;100550.09;;;4.26;63.05
75617;BME280;64200;55.426;37.758;2024-01-30T22:28:34;100549.38;;;4.04;63.42
75617;BME280;64200;55.426;37.758;2024-01-30T22:33:35;100541.03;;;4.18;63.33
75617;BME280;64200;55.426;37.758;2024-01-30T22:38:35;100539.47;;;4.21;63.19
75617;BME280;64200;55.426;37.758;2024-01-30T22:43:36;100553.28;;;4.21;63.34
75617;BME280;64200;55.426;37.758;2024-01-30T22:48:37;100552.09;;;4.18;62.87
75617;BME280;64200;55.426;37.758;2024-01-30T22:53:37;100540.69;;;4.09;63.27
75617;BME280;64200;55.426;37.758;2024-01-30T22:58:38;100535.94;;;4.20;62.87
75617;BME280;64200;55.426;37.758;2024-01-30T23:03:38;100525.69;;;4.07;62.97
75617;BME280;64200;55.426;37.758;2024-01-30T23:08:39;100528.06;;;4.08;63.03
75617;BME280;64200;55.426;37.758;2024-01-30T23:13:40;100524.91;;;4.13;62.99
75617;BME280;64200;55.426;37.758;2024-01-30T23:18:41;100534.75;;;4.18;63.14
75617;BME280;64200;55.426;37.758;2024-01-30T23:23:42;100525.69;;;4.07;62.97
75617;BME280;64200;55.426;37.758;2024-01-30T23:28:42;100539.50;;;4.14;62.99
75617;BME280;64200;55.426;37.758;2024-01-30T23:33:43;100525.31;;;4.12;63.13
75617;BME280;64200;55.426;37.758;2024-01-30T23:38:44;100525.72;;;4.10;63.10
75617;BME280;64200;55.426;37.758;2024-01-30T23:43:44;100526.56;;;3.78;63.46
75617;BME280;64200;55.426;37.758;2024-01-30T23:48:45;100507.97;;;4.00;63.24
75617;BME280;64200;55.426;37.758;2024-01-30T23:53:45;100525.31;;;4.01;63.02
75617;BME280;64200;55.426;37.758;2024-01-30T23:58:45;100521.41;;;3.98;63.45
